sensor_id;sensor_type;location;lat;lon;timestamp;P1;durP1;ratioP1;P2;durP2;ratioP2
43861;SDS011;29510;52.140;5.034;2023-11-21T00:01:21;21.03;;;9.50;;
43861;SDS011;29510;52.140;5.034;2023-11-21T00:11:21;17.63;;;9.77;;
43861;SDS011;29510;52.140;5.034;2023-11-21T00:21:22;23.27;;;10.13;;
43861;SDS011;29510;52.140;5.034;2023-11-21T00:31:22;20.85;;;9.02;;
43861;SDS011;29510;52.140;5.034;2023-11-21T00:41:23;15.55;;;8.73;;
43861;SDS011;29510;52.140;5.034;2023-11-21T00:51:23;14.77;;;7.97;;
43861;SDS011;29510;52.140;5.034;2023-11-21T01:01:27;15.18;;;7.45;;
43861;SDS011;29510;52.140;5.034;2023-11-21T01:11:27;14.98;;;8.20;;
43861;SDS011;29510;52.140;5.034;2023-11-21T01:21:28;15.48;;;7.40;;
43861;SDS011;29510;52.140;5.034;2023-11-21T01:31:29;13.20;;;7.20;;
43861;SDS011;29510;52.140;5.034;2023-11-21T01:41:29;14.73;;;6.85;;
43861;SDS011;29510;52.140;5.034;2023-11-21T01:51:30;13.77;;;6.95;;
43861;SDS011;29510;52.140;5.034;2023-11-21T02:01:31;14.63;;;6.70;;
43861;SDS011;29510;52.140;5.034;2023-11-21T02:11:32;13.30;;;6.28;;
43861;SDS011;29510;52.140;5.034;2023-11-21T02:21:34;12.68;;;7.53;;
43861;SDS011;29510;52.140;5.034;2023-11-21T02:31:36;11.02;;;6.43;;
43861;SDS011;29510;52.140;5.034;2023-11-21T02:41:38;11.75;;;6.05;;
43861;SDS011;29510;52.140;5.034;2023-11-21T02:51:39;11.03;;;6.73;;
43861;SDS011;29510;52.140;5.034;2023-11-21T03:01:39;17.23;;;7.07;;
43861;SDS011;29510;52.140;5.034;2023-11-21T03:11:40;12.20;;;6.53;;
43861;SDS011;29510;52.140;5.034;2023-11-21T03:21:40;19.35;;;9.88;;
43861;SDS011;29510;52.140;5.034;2023-11-21T03:31:41;25.45;;;11.50;;
43861;SDS011;29510;52.140;5.034;2023-11-21T03:41:41;22.05;;;10.07;;
43861;SDS011;29510;52.140;5.034;2023-11-21T03:51:42;17.50;;;9.23;;
43861;SDS011;29510;52.140;5.034;2023-11-21T04:01:42;13.40;;;7.60;;
43861;SDS011;29510;52.140;5.034;2023-11-21T04:11:43;14.75;;;7.50;;
43861;SDS011;29510;52.140;5.034;2023-11-21T04:21:45;14.10;;;6.45;;
43861;SDS011;29510;52.140;5.034;2023-11-21T04:31:46;14.20;;;6.45;;
43861;SDS011;29510;52.140;5.034;2023-11-21T04:41:48;18.77;;;7.22;;
43861;SDS011;29510;52.140;5.034;2023-11-21T04:51:50;15.35;;;8.23;;
43861;SDS011;29510;52.140;5.034;2023-11-21T05:01:50;14.55;;;7.55;;
43861;SDS011;29510;52.140;5.034;2023-11-21T05:11:51;15.23;;;7.32;;
43861;SDS011;29510;52.140;5.034;2023-11-21T05:21:53;12.63;;;5.97;;
43861;SDS011;29510;52.140;5.034;2023-11-21T05:31:53;12.02;;;6.50;;
43861;SDS011;29510;52.140;5.034;2023-11-21T05:41:54;15.90;;;7.13;;
43861;SDS011;29510;52.140;5.034;2023-11-21T05:51:55;14.32;;;7.53;;
43861;SDS011;29510;52.140;5.034;2023-11-21T06:01:56;19.55;;;8.77;;
43861;SDS011;29510;52.140;5.034;2023-11-21T06:11:57;23.17;;;9.68;;
43861;SDS011;29510;52.140;5.034;2023-11-21T06:21:58;19.98;;;8.85;;
43861;SDS011;29510;52.140;5.034;2023-11-21T06:31:59;13.32;;;7.15;;
43861;SDS011;29510;52.140;5.034;2023-11-21T06:42:00;10.68;;;6.00;;
43861;SDS011;29510;52.140;5.034;2023-11-21T06:52:00;14.80;;;7.43;;
43861;SDS011;29510;52.140;5.034;2023-11-21T07:02:02;15.50;;;7.65;;
43861;SDS011;29510;52.140;5.034;2023-11-21T07:12:04;12.82;;;6.85;;
43861;SDS011;29510;52.140;5.034;2023-11-21T07:22:07;12.27;;;6.05;;
43861;SDS011;29510;52.140;5.034;2023-11-21T07:32:08;11.35;;;5.80;;
43861;SDS011;29510;52.140;5.034;2023-11-21T07:42:13;8.60;;;4.63;;
43861;SDS011;29510;52.140;5.034;2023-11-21T07:52:14;11.20;;;5.60;;
43861;SDS011;29510;52.140;5.034;2023-11-21T08:02:16;14.27;;;6.35;;
43861;SDS011;29510;52.140;5.034;2023-11-21T08:12:17;12.55;;;5.35;;
43861;SDS011;29510;52.140;5.034;2023-11-21T08:22:20;11.98;;;5.70;;
43861;SDS011;29510;52.140;5.034;2023-11-21T08:32:22;11.18;;;5.20;;
43861;SDS011;29510;52.140;5.034;2023-11-21T08:42:22;9.98;;;4.55;;
43861;SDS011;29510;52.140;5.034;2023-11-21T08:52:23;9.15;;;4.43;;
43861;SDS011;29510;52.140;5.034;2023-11-21T09:02:25;10.07;;;4.95;;
43861;SDS011;29510;52.140;5.034;2023-11-21T09:12:26;8.50;;;4.35;;
43861;SDS011;29510;52.140;5.034;2023-11-21T09:22:27;8.82;;;4.10;;
43861;SDS011;29510;52.140;5.034;2023-11-21T09:32:29;9.32;;;3.97;;
43861;SDS011;29510;52.140;5.034;2023-11-21T09:42:32;7.70;;;3.90;;
43861;SDS011;29510;52.140;5.034;2023-11-21T09:52:49;10.05;;;4.57;;
43861;SDS011;29510;52.140;5.034;2023-11-21T10:03:10;8.90;;;4.38;;
43861;SDS011;29510;52.140;5.034;2023-11-21T10:13:12;9.40;;;4.45;;
43861;SDS011;29510;52.140;5.034;2023-11-21T10:23:16;8.77;;;4.30;;
43861;SDS011;29510;52.140;5.034;2023-11-21T10:33:20;9.50;;;4.50;;
43861;SDS011;29510;52.140;5.034;2023-11-21T10:43:27;11.07;;;5.80;;
43861;SDS011;29510;52.140;5.034;2023-11-21T10:53:28;20.33;;;8.20;;
43861;SDS011;29510;52.140;5.034;2023-11-21T11:03:28;18.65;;;8.82;;
43861;SDS011;29510;52.140;5.034;2023-11-21T11:13:33;20.25;;;8.85;;
43861;SDS011;29510;52.140;5.034;2023-11-21T11:44:09;24.00;;;9.50;;
43861;SDS011;29510;52.140;5.034;2023-11-21T11:54:45;21.50;;;8.60;;
43861;SDS011;29510;52.140;5.034;2023-11-21T12:04:46;17.15;;;7.38;;
43861;SDS011;29510;52.140;5.034;2023-11-21T12:14:46;25.98;;;9.90;;
43861;SDS011;29510;52.140;5.034;2023-11-21T12:24:47;22.83;;;9.93;;
43861;SDS011;29510;52.140;5.034;2023-11-21T12:34:48;27.50;;;10.52;;
43861;SDS011;29510;52.140;5.034;2023-11-21T12:45:05;22.90;;;9.05;;
43861;SDS011;29510;52.140;5.034;2023-11-21T12:55:15;24.23;;;9.77;;
43861;SDS011;29510;52.140;5.034;2023-11-21T13:05:23;25.73;;;10.52;;
43861;SDS011;29510;52.140;5.034;2023-11-21T13:15:28;27.05;;;11.80;;
43861;SDS011;29510;52.140;5.034;2023-11-21T13:25:31;30.15;;;12.57;;
43861;SDS011;29510;52.140;5.034;2023-11-21T13:35:35;26.25;;;12.30;;
43861;SDS011;29510;52.140;5.034;2023-11-21T13:45:48;26.35;;;10.80;;
43861;SDS011;29510;52.140;5.034;2023-11-21T13:55:58;27.75;;;11.70;;
43861;SDS011;29510;52.140;5.034;2023-11-21T14:05:58;24.80;;;11.07;;
43861;SDS011;29510;52.140;5.034;2023-11-21T14:16:00;26.88;;;11.73;;
43861;SDS011;29510;52.140;5.034;2023-11-21T14:26:02;24.60;;;11.18;;
43861;SDS011;29510;52.140;5.034;2023-11-21T14:36:03;19.88;;;10.35;;
43861;SDS011;29510;52.140;5.034;2023-11-21T14:46:04;20.75;;;10.38;;
43861;SDS011;29510;52.140;5.034;2023-11-21T14:56:09;18.63;;;10.00;;
43861;SDS011;29510;52.140;5.034;2023-11-21T15:06:10;16.58;;;8.73;;
43861;SDS011;29510;52.140;5.034;2023-11-21T15:16:26;17.85;;;8.65;;
43861;SDS011;29510;52.140;5.034;2023-11-21T15:26:27;18.35;;;9.65;;
43861;SDS011;29510;52.140;5.034;2023-11-21T15:36:28;17.73;;;10.32;;
43861;SDS011;29510;52.140;5.034;2023-11-21T15:46:29;15.65;;;10.07;;
43861;SDS011;29510;52.140;5.034;2023-11-21T15:56:30;15.73;;;9.30;;
43861;SDS011;29510;52.140;5.034;2023-11-21T16:06:30;14.30;;;8.90;;
43861;SDS011;29510;52.140;5.034;2023-11-21T16:16:31;12.25;;;8.35;;
43861;SDS011;29510;52.140;5.034;2023-11-21T16:26:31;12.38;;;8.55;;
43861;SDS011;29510;52.140;5.034;2023-11-21T16:36:32;14.07;;;9.05;;
43861;SDS011;29510;52.140;5.034;2023-11-21T16:46:33;17.63;;;9.45;;
43861;SDS011;29510;52.140;5.034;2023-11-21T16:56:33;14.80;;;9.33;;
43861;SDS011;29510;52.140;5.034;2023-11-21T17:06:35;12.50;;;8.13;;
43861;SDS011;29510;52.140;5.034;2023-11-21T17:16:36;14.35;;;8.82;;
43861;SDS011;29510;52.140;5.034;2023-11-21T17:26:37;14.20;;;9.38;;
43861;SDS011;29510;52.140;5.034;2023-11-21T17:36:39;14.82;;;9.43;;
43861;SDS011;29510;52.140;5.034;2023-11-21T17:46:40;15.65;;;9.10;;
43861;SDS011;29510;52.140;5.034;2023-11-21T17:56:41;14.52;;;8.35;;
43861;SDS011;29510;52.140;5.034;2023-11-21T18:06:41;15.23;;;8.85;;
43861;SDS011;29510;52.140;5.034;2023-11-21T18:16:42;15.07;;;8.38;;
43861;SDS011;29510;52.140;5.034;2023-11-21T18:26:43;13.63;;;7.90;;
43861;SDS011;29510;52.140;5.034;2023-11-21T18:36:44;14.50;;;8.65;;
43861;SDS011;29510;52.140;5.034;2023-11-21T18:46:45;18.90;;;7.95;;
43861;SDS011;29510;52.140;5.034;2023-11-21T18:56:46;15.23;;;8.10;;
43861;SDS011;29510;52.140;5.034;2023-11-21T19:06:46;17.95;;;8.73;;
43861;SDS011;29510;52.140;5.034;2023-11-21T19:16:47;15.15;;;9.07;;
43861;SDS011;29510;52.140;5.034;2023-11-21T19:26:48;16.65;;;9.38;;
43861;SDS011;29510;52.140;5.034;2023-11-21T19:36:49;17.10;;;9.80;;
43861;SDS011;29510;52.140;5.034;2023-11-21T19:46:51;17.40;;;10.40;;
43861;SDS011;29510;52.140;5.034;2023-11-21T19:56:51;21.80;;;10.38;;
43861;SDS011;29510;52.140;5.034;2023-11-21T20:06:52;20.10;;;9.90;;
43861;SDS011;29510;52.140;5.034;2023-11-21T20:16:54;15.85;;;9.20;;
43861;SDS011;29510;52.140;5.034;2023-11-21T20:26:55;18.40;;;9.82;;
43861;SDS011;29510;52.140;5.034;2023-11-21T20:36:56;17.33;;;9.13;;
43861;SDS011;29510;52.140;5.034;2023-11-21T20:46:58;18.23;;;10.07;;
43861;SDS011;29510;52.140;5.034;2023-11-21T20:56:58;16.00;;;9.18;;
43861;SDS011;29510;52.140;5.034;2023-11-21T21:06:59;16.05;;;9.80;;
43861;SDS011;29510;52.140;5.034;2023-11-21T21:16:59;14.40;;;8.88;;
43861;SDS011;29510;52.140;5.034;2023-11-21T21:27:01;16.80;;;9.38;;
43861;SDS011;29510;52.140;5.034;2023-11-21T21:37:01;14.20;;;8.18;;
43861;SDS011;29510;52.140;5.034;2023-11-21T21:47:02;16.60;;;9.38;;
43861;SDS011;29510;52.140;5.034;2023-11-21T21:57:03;17.48;;;10.15;;
43861;SDS011;29510;52.140;5.034;2023-11-21T22:07:04;16.48;;;9.77;;
43861;SDS011;29510;52.140;5.034;2023-11-21T22:17:04;18.13;;;8.93;;
43861;SDS011;29510;52.140;5.034;2023-11-21T22:27:05;15.55;;;8.27;;
43861;SDS011;29510;52.140;5.034;2023-11-21T22:37:05;17.25;;;8.57;;
43861;SDS011;29510;52.140;5.034;2023-11-21T22:47:06;13.55;;;8.05;;
43861;SDS011;29510;52.140;5.034;2023-11-21T22:57:07;15.02;;;8.82;;
43861;SDS011;29510;52.140;5.034;2023-11-21T23:07:07;11.70;;;7.57;;
43861;SDS011;29510;52.140;5.034;2023-11-21T23:17:08;13.95;;;8.23;;
43861;SDS011;29510;52.140;5.034;2023-11-21T23:27:08;15.00;;;8.45;;
43861;SDS011;29510;52.140;5.034;2023-11-21T23:37:09;17.45;;;8.60;;
43861;SDS011;29510;52.140;5.034;2023-11-21T23:47:10;17.73;;;9.10;;
43861;SDS011;29510;52.140;5.034;2023-11-21T23:57:10;14.18;;;8.23;;
